Latest Weather Observations for Edithburgh

IDS60801

Issued at 7:51 am CST Friday 19 August 2022 (issued every 10 minutes, with the page automatically refreshed every 10 minutes)

About weather observations | Map of weather stations | Latest weather observations for SA | Other Formats
Station Details ID: 022046 Name: EDITHBURGH Lat: -35.11 Lon: 137.74 Height: 6.0 m
Data from the previous 72 hours. | See also: Recent months at Edithburgh
Date/Time
CST
Temp
°C
App
Temp
°C
Dew
Point
°C
Rel
Hum
%
Delta-T
°C
Wind Press
QNH
hPa
Press
MSL
hPa
Rain since
9am
mm
Dir  Spd
km/h
Gust
km/h
Spd
kts
Gust
kts
19/07:30am 5.4 1.4 5.0 97 0.2 NW 15 20 8 11 1019.5 1019.6 8.2
19/07:00am 5.3 0.8 4.4 94 0.4 WNW 17 20 9 11 1019.2 1019.3 8.2
19/06:30am 6.3 2.3 5.1 92 0.5 WNW 15 19 8 10 1019.0 1019.1 8.2
19/06:00am 6.5 2.2 5.3 92 0.5 WNW 17 20 9 11 1018.8 1018.9 8.2
19/05:30am 6.5 2.6 5.5 93 0.4 WNW 15 17 8 9 1018.6 1018.7 8.2
19/05:00am 7.2 3.5 6.5 95 0.3 W 15 19 8 10 1018.4 1018.5 8.2
19/04:30am 6.5 2.8 6.1 97 0.2 WNW 15 19 8 10 1018.2 1018.3 8.2
19/04:00am 6.2 2.4 5.8 97 0.2 WNW 15 20 8 11 1018.0 1018.1 8.2
19/03:30am 6.0 2.2 5.6 97 0.2 WNW 15 19 8 10 1017.7 1017.8 8.2
19/03:00am 8.0 4.9 7.4 96 0.3 W 13 15 7 8 1017.7 1017.8 8.2
19/02:30am 8.3 4.2 7.9 97 0.2 W 19 24 10 13 1017.8 1017.9 8.2
19/02:00am 7.2 4.0 6.8 97 0.2 WNW 13 17 7 9 1017.6 1017.7 8.2
19/01:30am 7.9 4.4 7.3 96 0.3 W 15 17 8 9 1017.6 1017.7 8.0
19/01:00am 8.6 5.2 7.7 94 0.4 W 15 20 8 11 1017.2 1017.2 8.0
19/12:30am 7.5 3.2 7.1 97 0.2 WNW 19 24 10 13 1017.1 1017.1 7.6
19/12:00am 7.5 4.0 7.1 97 0.2 WNW 15 20 8 11 1017.1 1017.1 7.6
 
Date/Time
CST
Temp
°C
App
Temp
°C
Dew
Point
°C
Rel
Hum
%
Delta-T
°C
Wind Press
QNH
hPa
Press
MSL
hPa
Rain since
9am
mm
Dir  Spd
km/h
Gust
km/h
Spd
kts
Gust
kts
18/11:30pm 7.7 4.6 7.1 96 0.3 W 13 15 7 8 1016.9 1016.9 7.2
18/11:00pm 8.7 5.3 7.8 94 0.4 W 15 19 8 10 1016.7 1016.7 7.2
18/10:30pm 9.2 5.0 7.6 90 0.8 WNW 19 28 10 15 1016.6 1016.6 7.2
18/10:00pm 9.5 6.7 6.9 84 1.2 WSW 11 17 6 9 1016.2 1016.2 7.2
18/09:30pm 9.9 6.8 7.2 83 1.3 SW 13 19 7 10 1015.9 1015.9 7.2
18/09:00pm 10.3 5.0 7.0 80 1.6 SW 24 39 13 21 1015.7 1015.7 7.2
18/08:30pm 11.2 7.3 7.1 76 2.0 SW 17 30 9 16 1015.2 1015.2 6.8
18/08:00pm 10.4 6.7 6.5 77 1.8 SW 15 22 8 12 1014.7 1014.7 6.8
18/07:30pm 11.4 5.5 7.3 76 2.0 SW 28 41 15 22 1014.4 1014.4 6.8
18/07:00pm 11.3 6.6 6.2 71 2.4 SW 20 28 11 15 1013.8 1013.8 6.8
18/06:30pm 11.7 7.3 7.6 76 2.0 WSW 20 32 11 17 1013.3 1013.3 6.8
18/06:00pm 10.6 9.0 10.1 97 0.3 WSW 9 13 5 7 1012.7 1012.7 6.8
18/05:30pm 10.6 7.3 9.7 94 0.5 WSW 17 24 9 13 1012.4 1012.4 6.8
18/05:00pm 10.1 4.0 8.4 89 0.8 WSW 30 59 16 32 1011.9 1011.9 6.2
18/04:58pm 10.7 5.3 7.9 83 1.4 WSW 26 59 14 32 1011.8 1011.8 6.0
18/04:56pm 11.5 6.9 8.0 79 1.7 WSW 22 59 12 32 1011.7 1011.7 6.0
18/04:30pm 12.2 9.7 9.8 85 1.2 WSW 13 20 7 11 1011.1 1011.1 6.0
18/04:00pm 12.2 9.9 11.7 97 0.3 WSW 15 20 8 11 1010.8 1010.8 6.0
18/03:30pm 11.7 10.0 11.2 97 0.3 WSW 11 19 6 10 1010.1 1010.1 6.0
18/03:00pm 11.3 8.3 10.8 97 0.3 WSW 17 24 9 13 1010.1 1010.1 5.8
18/02:30pm 10.9 6.1 10.4 97 0.3 W 26 35 14 19 1009.7 1009.7 5.0
18/02:00pm 11.0 7.0 10.5 97 0.3 W 22 30 12 16 1009.3 1009.3 3.2
18/01:51pm 11.1 7.1 10.6 97 0.3 WSW 22 41 12 22 1009.3 1009.3 2.4
18/01:30pm 16.2 13.3 14.0 87 1.2 WNW 22 28 12 15 1008.3 1008.3 0.2
18/01:00pm 14.3 10.7 13.2 93 0.6 WNW 24 32 13 17 1008.4 1008.4 0.2
18/12:30pm 14.5 11.1 12.5 88 1.1 W 22 32 12 17 1008.5 1008.5 0.2
18/12:00pm 13.5 9.2 13.2 98 0.2 WNW 28 39 15 21 1008.7 1008.7 0.2
18/11:30am 15.4 10.7 13.2 87 1.2 WNW 30 39 16 21 1009.0 1009.0 0.0
18/11:00am 13.7 7.9 12.8 94 0.5 WNW 35 48 19 26 1009.1 1009.1 0.0
18/10:30am 15.5 10.0 13.7 89 1.0 NW 35 44 19 24 1009.2 1009.2 0.0
18/10:00am 14.4 8.3 13.0 91 0.8 NW 37 44 20 24 1008.9 1008.9 0.0
18/09:30am 13.6 7.5 13.1 97 0.3 WNW 37 54 20 29 1009.1 1009.1 0.0
18/09:00am 12.7 9.3 12.4 98 0.2 NW 22 35 12 19 1009.3 1009.3 2.2
18/08:30am 12.8 7.3 12.3 97 0.3 NW 33 43 18 23 1009.1 1009.1 2.0
18/08:00am 12.1 8.9 11.8 98 0.2 NW 20 32 11 17 1009.0 1009.0 2.0
18/07:30am 11.4 8.5 11.1 98 0.2 NNW 17 22 9 12 1008.8 1008.8 2.0
18/07:00am 11.5 8.7 11.2 98 0.2 NNW 17 24 9 13 1008.4 1008.4 2.0
18/06:30am 11.3 9.2 11.0 98 0.2 N 13 19 7 10 1008.4 1008.4 2.0
18/06:00am 10.5 8.5 10.2 98 0.2 NNW 11 15 6 8 1008.1 1008.1 2.0
18/05:30am 10.7 8.0 10.4 98 0.2 NNW 15 20 8 11 1008.0 1008.0 2.0
18/05:00am 11.2 7.3 10.9 98 0.2 NW 22 28 12 15 1007.9 1007.9 2.0
18/04:30am 11.4 6.8 10.9 97 0.3 NW 26 33 14 18 1007.8 1007.8 2.0
18/04:00am 11.9 7.5 11.6 98 0.2 NW 26 35 14 19 1007.7 1007.7 2.0
18/03:30am 12.2 7.1 11.9 98 0.2 NW 30 41 16 22 1007.9 1007.9 2.0
18/03:00am 12.7 8.5 12.4 98 0.2 NW 26 33 14 18 1007.4 1007.4 2.0
18/02:30am 12.9 7.4 12.6 98 0.2 NW 33 41 18 22 1007.7 1007.7 2.0
18/02:00am 13.3 9.3 13.0 98 0.2 NW 26 35 14 19 1008.5 1008.5 0.8
18/01:30am 13.5 10.8 13.0 97 0.3 NW 19 26 10 14 1007.9 1007.9 0.2
18/01:00am 13.5 10.6 12.4 93 0.6 NW 19 26 10 14 1008.3 1008.3 0.2
18/12:30am 13.3 10.5 11.5 89 1.0 WNW 17 26 9 14 1009.1 1009.1 0.2
18/12:00am 12.3 9.6 10.5 89 0.9 NNW 15 17 8 9 1008.8 1008.8 0.2
 
Date/Time
CST
Temp
°C
App
Temp
°C
Dew
Point
°C
Rel
Hum
%
Delta-T
°C
Wind Press
QNH
hPa
Press
MSL
hPa
Rain since
9am
mm
Dir  Spd
km/h
Gust
km/h
Spd
kts
Gust
kts
17/11:30pm 11.7 10.0 9.9 89 0.9 NW 9 11 5 6 1008.4 1008.4 0.2
17/11:00pm 12.9 10.7 9.4 79 1.8 NW 11 15 6 8 1008.1 1008.1 0.2
17/10:30pm 14.4 10.9 8.8 69 2.8 WNW 17 24 9 13 1008.7 1008.7 0.2
17/10:00pm 15.7 11.3 7.5 58 4.1 W 20 30 11 16 1008.9 1008.9 0.2
17/09:30pm 15.2 12.4 8.7 65 3.3 N 13 19 7 10 1008.4 1008.4 0.2
17/09:00pm 15.1 11.0 8.8 66 3.2 N 20 28 11 15 1007.7 1007.7 0.2
17/08:30pm 14.8 10.7 8.7 67 3.1 N 20 32 11 17 1007.5 1007.5 0.2
17/08:00pm 14.9 10.9 8.4 65 3.3 N 19 28 10 15 1007.9 1007.9 0.2
17/07:30pm 14.6 10.7 8.8 68 2.9 N 19 30 10 16 1007.8 1007.8 0.2
17/07:00pm 15.2 11.0 7.3 59 3.9 N 19 28 10 15 1008.6 1008.6 0.2
17/06:30pm 14.7 10.0 7.7 63 3.5 N 22 32 12 17 1008.9 1008.9 0.2
17/06:00pm 14.7 10.6 7.7 63 3.5 N 19 32 10 17 1008.9 1008.9 0.0
17/05:30pm 14.5 11.1 7.8 64 3.3 N 15 26 8 14 1009.4 1009.4 0.0
17/05:00pm 14.5 10.8 7.8 64 3.3 N 17 28 9 15 1008.9 1008.9 0.0
17/04:30pm 14.8 10.6 7.6 62 3.6 N 19 32 10 17 1009.2 1009.2 0.0
17/04:00pm 15.0 10.8 7.5 61 3.7 N 19 30 10 16 1009.3 1009.3 0.0
17/03:30pm 14.9 11.5 7.7 62 3.6 N 15 24 8 13 1010.1 1010.1 0.0
17/03:00pm 14.8 11.6 8.5 66 3.2 NNW 15 22 8 12 1010.8 1010.8 0.0
17/02:30pm 14.9 10.6 7.7 62 3.6 N 20 32 11 17 1010.3 1010.3 0.0
17/02:00pm 14.8 10.8 8.3 65 3.3 NNW 19 32 10 17 1010.6 1010.6 0.0
17/01:30pm 15.3 11.1 8.3 63 3.5 NNW 20 30 11 16 1010.9 1010.9 0.0
17/01:00pm 14.9 9.1 7.9 63 3.5 N 28 43 15 23 1011.4 1011.4 0.0
17/12:30pm 15.2 10.3 8.4 64 3.4 NNW 24 33 13 18 1012.2 1012.2 0.0
17/12:00pm 14.9 9.9 8.2 64 3.4 NNW 24 39 13 21 1013.0 1013.0 0.0
17/11:30am 14.4 9.5 8.4 67 3.0 N 24 39 13 21 1013.0 1013.0 0.0
17/11:00am 14.4 10.4 9.0 70 2.7 N 20 30 11 16 1013.3 1013.3 0.0
17/10:30am 13.5 9.6 9.4 76 2.1 N 20 28 11 15 1013.7 1013.7 0.0
17/10:00am 13.4 9.8 9.8 79 1.8 N 19 30 10 16 1014.4 1014.4 0.0
17/09:30am 13.0 9.6 10.4 84 1.3 N 19 30 10 16 1015.0 1015.0 0.0
17/09:00am 12.8 9.4 10.5 86 1.2 N 19 30 10 16 1015.2 1015.2 0.0
17/08:30am 12.6 8.5 10.1 85 1.3 N 22 32 12 17 1015.7 1015.7 0.0
17/08:00am 12.3 9.1 10.0 86 1.2 N 17 26 9 14 1016.0 1016.0 0.0
17/07:30am 12.3 9.5 10.0 86 1.2 N 15 26 8 14 1016.0 1016.0 0.0
17/07:00am 12.0 9.6 10.1 88 1.0 N 13 19 7 10 1016.2 1016.2 0.0
17/06:30am 12.0 9.2 10.1 88 1.0 N 15 24 8 13 1016.3 1016.3 0.0
17/06:00am 12.0 9.8 10.9 93 0.6 N 13 19 7 10 1016.4 1016.4 0.0
17/05:30am 12.3 9.8 11.2 93 0.6 N 15 22 8 12 1016.0 1016.0 0.0
17/05:00am 12.3 9.2 10.4 88 1.0 N 17 26 9 14 1015.9 1015.9 0.0
17/04:30am 12.2 9.4 9.9 86 1.2 N 15 24 8 13 1015.9 1015.9 0.0
17/04:00am 12.1 9.3 10.0 87 1.1 N 15 24 8 13 1015.9 1015.9 0.0
17/03:30am 12.2 9.5 10.4 89 0.9 NNE 15 20 8 11 1016.1 1016.1 0.0
17/03:00am 12.2 10.0 10.9 92 0.7 N 13 22 7 12 1017.2 1017.2 0.0
17/02:30am 12.2 9.7 10.9 92 0.7 NNE 15 24 8 13 1017.1 1017.1 0.0
17/02:00am 12.2 9.3 11.1 93 0.6 N 17 26 9 14 1017.4 1017.5 0.0
17/01:30am 12.4 10.0 11.3 93 0.6 NNE 15 26 8 14 1017.4 1017.5 0.0
17/01:00am 12.4 10.3 11.1 92 0.7 NNE 13 24 7 13 1017.4 1017.5 0.0
17/12:30am 12.4 10.1 10.6 89 0.9 NNE 13 20 7 11 1017.9 1018.0 0.0
17/12:00am 12.3 9.6 10.4 88 1.0 N 15 24 8 13 1018.2 1018.3 0.0
 
Date/Time
CST
Temp
°C
App
Temp
°C
Dew
Point
°C
Rel
Hum
%
Delta-T
°C
Wind Press
QNH
hPa
Press
MSL
hPa
Rain since
9am
mm
Dir  Spd
km/h
Gust
km/h
Spd
kts
Gust
kts
16/11:30pm 12.3 9.5 9.9 85 1.2 NNE 15 24 8 13 1018.3 1018.4 0.0
16/11:00pm 12.3 10.0 10.4 88 1.0 NNE 13 20 7 11 1018.7 1018.8 0.0
16/10:30pm 12.1 10.1 10.2 88 1.0 NNE 11 17 6 9 1018.6 1018.7 0.0
16/10:00pm 11.9 9.3 9.3 84 1.3 NNE 13 20 7 11 1019.0 1019.1 0.0
16/09:30pm 11.7 10.1 10.1 90 0.8 NNE 9 13 5 7 1019.3 1019.4 0.0
16/09:00pm 11.2 9.8 9.5 89 0.9 N 7 9 4 5 1020.0 1020.0 0.0
16/08:30pm 10.8 9.4 9.4 91 0.7 NNE 7 11 4 6 1020.2 1020.2 0.0
16/08:00pm 9.1 7.4 8.5 96 0.3 N 7 9 4 5 1020.3 1020.3 0.0
16/07:30pm 8.1 5.5 7.7 97 0.2 NNW 11 13 6 7 1020.5 1020.5 0.0
16/07:00pm 8.0 5.7 7.6 97 0.2 NNW 9 13 5 7 1020.2 1020.2 0.0
16/06:30pm 10.3 9.4 9.4 94 0.4 NNW 4 6 2 3 1020.0 1020.0 0.0
16/06:00pm 11.2 11.0 8.9 86 1.1 CALM 0 4 0 2 1019.9 1019.9 0.0
16/05:30pm 12.4 11.3 8.5 77 1.9 NE 4 4 2 2 1019.4 1019.5 0.0
16/05:00pm 13.1 11.5 8.6 74 2.2 ENE 7 9 4 5 1019.0 1019.1 0.0
16/04:30pm 14.1 12.4 8.3 68 2.9 E 7 9 4 5 1019.0 1019.1 0.0
16/04:00pm 13.8 12.1 8.2 69 2.8 ESE 7 11 4 6 1019.3 1019.4 0.0
16/03:30pm 14.1 12.0 8.3 68 2.9 SE 9 11 5 6 1019.4 1019.5 0.0
16/03:00pm 13.9 12.0 7.4 65 3.2 SE 7 11 4 6 1019.2 1019.3 0.0
16/02:30pm 14.1 12.2 7.6 65 3.2 SSE 7 9 4 5 1019.6 1019.7 0.0
16/02:00pm 14.4 13.1 7.5 63 3.4 SSE 4 9 2 5 1019.7 1019.8 0.0
16/01:30pm 14.7 13.1 8.2 65 3.2 S 6 9 3 5 1019.7 1019.8 0.0
16/01:00pm 14.5 12.7 7.8 64 3.3 ESE 7 11 4 6 1019.7 1019.8 0.0
16/12:30pm 14.6 12.9 8.3 66 3.2 ESE 7 11 4 6 1020.2 1020.2 0.0
16/12:00pm 14.2 12.2 8.6 69 2.8 SE 9 13 5 7 1020.4 1020.4 0.0
16/11:30am 14.6 13.3 10.0 74 2.4 S 7 11 4 6 1020.7 1020.7 0.0
16/11:00am 14.2 12.6 10.2 77 2.1 SSE 9 13 5 7 1020.8 1020.8 0.0
16/10:30am 14.2 12.5 10.0 76 2.2 S 9 13 5 7 1020.8 1020.8 0.0
16/10:00am 13.9 11.8 9.9 77 2.1 S 11 17 6 9 1020.6 1020.6 0.0
16/09:30am 13.6 10.8 10.0 79 1.9 SSW 15 19 8 10 1020.7 1020.7 0.0
16/09:00am 13.4 10.1 9.5 77 2.0 S 17 24 9 13 1020.4 1020.4 0.6
16/08:30am 13.0 9.7 9.4 79 1.8 S 17 20 9 11 1020.1 1020.1 0.6
16/08:00am 12.4 8.4 9.2 81 1.6 SSW 20 28 11 15 1019.6 1019.7 0.6

Other formats

Comma delimited format used in spreadsheet applications
http://www.bom.gov.au/fwo/IDS60801/IDS60801.94809.axf

JavaScript Object Notation format (JSON) in row-major order
http://www.bom.gov.au/fwo/IDS60801/IDS60801.94809.json

Data quality

Most of these data are generated automatically and are frequently updated. Quality checks on data are not normally performed. It is possible for incorrect values to appear. Refer to information at About Latest Weather Observations and please check the disclaimer before using these data.